Bridgwater, United Kingdom
Current Conditions -  °F | °C
As of 11:50 AM on Sunday 21 Dec 2014 (Local Time) from EGDY Reporting Station
Broken Clouds Broken Clouds  
Wind Chill: 50°   Ceiling: 2000
Heat Index: 50°   Visibility: 6mi
Dew Point: 43°   Wind: 10mph
Humidity: 76%   Direction: 240°WSW
Pressure: 30.36"   Gusts: NA
Location:  51.13°N, 3°W
Report Text: EGDY 211150Z AUTO 24009KT 9999 BKN020/// BKN027/// 10/06 Q1028
Loading
Personal Weather Stations






























Interactive Weather Map New forecast layout! Learn more

10-Day Weather Forecast

Advertisements
Track Severe Weather on mobile